Time;durP1;ratioP1;P1;durP2;ratioP2;P2;SDS_P1;SDS_P2;PMS_P1;PMS_P2;Temp;Humidity;BMP_temperature;BMP_pressure;BME280_temperature;BME280_humidity;BME280_pressure;Samples;Min_cycle;Max_cycle;Signal;HPM_P1;HPM_P2
2023/09/20 00:00:08;;;;;;;2.63;1.30;;;;;;;25.60;50.67;101049.47;5007527;28;20050;-61
2023/09/20 00:02:39;;;;;;;2.15;1.10;;;;;;;25.59;50.71;101057.75;5008161;28;20050;-62
2023/09/20 00:05:15;;;;;;;3.37;1.30;;;;;;;25.60;50.70;101049.47;5004295;28;20057;-62
2023/09/20 00:07:42;;;;;;;3.08;1.05;;;;;;;25.60;50.55;101052.19;5006753;28;20041;-62
2023/09/20 00:10:12;;;;;;;2.45;1.02;;;;;;;25.60;50.49;101063.03;5007930;28;20049;-61
2023/09/20 00:12:41;;;;;;;2.40;1.17;;;;;;;25.60;50.54;101063.03;5007526;28;20046;-62
2023/09/20 00:15:08;;;;;;;3.25;1.52;;;;;;;25.60;50.67;101065.72;4998415;28;20045;-62
2023/09/20 00:17:36;;;;;;;2.92;1.35;;;;;;;25.60;50.69;101064.84;5008183;28;20050;-62
2023/09/20 00:20:06;;;;;;;4.10;1.27;;;;;;;25.61;50.88;101055.72;5007153;28;20049;-61
2023/09/20 00:22:34;;;;;;;2.53;1.33;;;;;;;25.60;50.76;101057.59;5007545;28;20049;-62
2023/09/20 00:25:02;;;;;;;3.35;1.00;;;;;;;25.60;50.79;101063.03;5004299;28;20050;-62
2023/09/20 00:27:29;;;;;;;1.98;1.00;;;;;;;25.60;50.72;101065.72;5005769;28;20372;-62
2023/09/20 00:29:56;;;;;;;3.20;1.50;;;;;;;25.59;50.59;101061.28;5007646;28;20069;-59
2023/09/20 00:32:24;;;;;;;2.10;1.08;;;;;;;25.60;50.70;101054.00;5005574;28;20061;-59
2023/09/20 00:34:51;;;;;;;2.83;1.42;;;;;;;25.59;50.70;101055.03;5004032;28;20061;-59
2023/09/20 00:37:19;;;;;;;3.17;1.70;;;;;;;25.58;50.47;101051.47;4990451;28;20054;-59
2023/09/20 00:39:46;;;;;;;2.90;1.45;;;;;;;25.58;50.56;101054.19;5008265;28;20071;-61
2023/09/20 00:42:13;;;;;;;3.17;1.00;;;;;;;25.58;50.66;101056.91;5005795;28;20492;-62
2023/09/20 00:44:41;;;;;;;2.17;1.13;;;;;;;25.58;50.24;101048.75;5004141;28;20069;-62
2023/09/20 00:47:11;;;;;;;3.30;1.40;;;;;;;25.58;50.33;101054.19;5008734;28;20033;-62
2023/09/20 00:49:39;;;;;;;2.55;1.38;;;;;;;25.59;50.44;101055.03;4994167;28;20042;-59
2023/09/20 00:52:08;;;;;;;5.10;1.25;;;;;;;25.59;50.51;101057.75;4999578;28;20058;-59
2023/09/20 00:54:36;;;;;;;2.25;1.00;;;;;;;25.59;50.56;101053.16;5004031;28;20394;-59
2023/09/20 00:57:05;;;;;;;2.85;1.30;;;;;;;25.58;50.38;101053.34;5009804;28;20385;-59
2023/09/20 00:59:34;;;;;;;2.50;1.55;;;;;;;25.58;50.54;101051.47;5009274;28;20061;-61
2023/09/20 01:02:03;;;;;;;3.53;1.52;;;;;;;25.58;50.66;101048.75;5007876;28;20065;-61
2023/09/20 01:04:30;;;;;;;2.78;1.42;;;;;;;25.58;50.52;101045.22;5006878;28;20054;-61
2023/09/20 01:06:58;;;;;;;2.97;1.50;;;;;;;25.58;50.52;101043.34;5010776;28;20411;-62
2023/09/20 01:09:26;;;;;;;2.88;1.33;;;;;;;25.57;50.52;101044.38;5011533;28;20041;-61
2023/09/20 01:11:57;;;;;;;4.13;1.55;;;;;;;25.58;50.36;101056.06;5007518;28;20060;-62
2023/09/20 01:14:25;;;;;;;2.58;1.30;;;;;;;25.57;50.31;101055.22;5013452;28;20046;-62
2023/09/20 01:16:54;;;;;;;3.55;1.52;;;;;;;25.57;50.31;101055.22;5010804;28;20515;-62
2023/09/20 01:19:21;;;;;;;2.75;1.50;;;;;;;25.57;50.20;101063.34;5011269;28;20045;-61
2023/09/20 01:21:49;;;;;;;3.20;1.27;;;;;;;25.57;50.22;101055.22;5006426;28;20046;-62
2023/09/20 01:24:19;;;;;;;3.17;1.27;;;;;;;25.57;50.28;101054.38;5009101;28;20050;-62
2023/09/20 01:26:49;;;;;;;4.55;1.52;;;;;;;25.58;49.96;101050.63;5010180;28;20065;-62
2023/09/20 01:29:16;;;;;;;2.00;1.00;;;;;;;25.57;50.06;101035.38;5011140;28;20042;-59
2023/09/20 01:31:44;;;;;;;2.22;1.05;;;;;;;25.58;49.93;101039.78;5006001;28;20058;-59
2023/09/20 01:34:11;;;;;;;2.40;1.10;;;;;;;25.57;49.95;101038.94;5010172;28;20047;-59
2023/09/20 01:36:40;;;;;;;2.85;1.20;;;;;;;25.57;49.71;101041.66;5010471;28;20053;-59
2023/09/20 01:39:09;;;;;;;3.20;1.08;;;;;;;25.56;49.83;101034.53;5010837;28;20048;-59
2023/09/20 01:41:37;;;;;;;2.30;1.27;;;;;;;25.56;49.64;101034.53;5007086;28;20515;-59
2023/09/20 01:44:05;;;;;;;3.38;1.17;;;;;;;25.56;49.84;101034.53;5009052;28;20054;-59
2023/09/20 01:46:33;;;;;;;2.20;0.90;;;;;;;25.56;49.72;101037.25;5010444;28;20496;-59
2023/09/20 01:49:00;;;;;;;2.42;0.98;;;;;;;25.56;49.98;101031.84;5014098;28;20054;-61
2023/09/20 01:51:28;;;;;;;2.88;1.40;;;;;;;25.56;49.72;101031.84;4988774;28;20372;-62
2023/09/20 01:53:55;;;;;;;2.97;1.30;;;;;;;25.56;49.67;101036.38;5009243;28;20053;-62
2023/09/20 01:56:26;;;;;;;2.50;1.13;;;;;;;25.55;49.45;101034.69;5010808;28;20053;-62
2023/09/20 01:58:53;;;;;;;1.98;0.90;;;;;;;25.55;49.61;101037.41;5008555;28;20057;-61
2023/09/20 02:01:21;;;;;;;4.70;1.33;;;;;;;25.55;49.41;101032.81;5005462;28;20057;-62
2023/09/20 02:03:50;;;;;;;2.67;1.13;;;;;;;25.55;49.33;101034.69;5010979;28;20052;-62
2023/09/20 02:06:19;;;;;;;2.40;1.25;;;;;;;25.55;49.50;101029.28;5009322;28;20050;-62
2023/09/20 02:08:48;;;;;;;3.08;1.48;;;;;;;25.55;49.61;101031.97;5009370;28;20045;-59
2023/09/20 02:11:16;;;;;;;3.20;1.23;;;;;;;25.55;49.41;101040.97;5006940;28;20427;-59
2023/09/20 02:13:43;;;;;;;2.75;1.17;;;;;;;25.55;49.34;101035.53;5008876;28;20054;-59
2023/09/20 02:16:11;;;;;;;2.35;1.00;;;;;;;25.55;49.46;101029.28;5007664;28;20049;-59
2023/09/20 02:18:38;;;;;;;3.95;1.38;;;;;;;25.53;49.50;101015.91;5008370;28;20485;-59
2023/09/20 02:21:08;;;;;;;2.15;1.23;;;;;;;25.54;49.37;101020.28;5006768;28;20054;-59
2023/09/20 02:23:35;;;;;;;2.55;1.30;;;;;;;25.55;49.26;101021.97;5009604;28;20065;-59
2023/09/20 02:26:03;;;;;;;2.15;1.00;;;;;;;25.52;49.08;101022.34;5008411;28;20416;-59
2023/09/20 02:28:31;;;;;;;2.83;1.35;;;;;;;25.53;48.96;101026.75;5008088;28;20050;-61
2023/09/20 02:31:00;;;;;;;2.17;1.02;;;;;;;25.53;48.84;101032.16;5005074;28;20054;-61
2023/09/20 02:33:28;;;;;;;1.75;0.90;;;;;;;25.53;48.97;101036.75;5008390;28;20057;-61
2023/09/20 02:35:57;;;;;;;3.22;1.00;;;;;;;25.53;49.02;101045.72;5007917;28;20492;-62
2023/09/20 02:38:28;;;;;;;2.60;1.20;;;;;;;25.53;49.03;101053.00;5010265;28;20057;-61
2023/09/20 02:40:59;;;;;;;1.98;0.93;;;;;;;25.53;48.97;101064.69;5007462;28;20058;-62
2023/09/20 02:43:26;;;;;;;2.75;1.17;;;;;;;25.52;49.02;101062.13;5007610;28;20056;-61
2023/09/20 02:45:55;;;;;;;3.17;1.17;;;;;;;25.52;49.00;101056.72;5009334;28;20057;-62
2023/09/20 02:48:22;;;;;;;2.53;1.10;;;;;;;25.53;49.10;101059.28;5006661;28;20042;-61
2023/09/20 02:50:50;;;;;;;2.30;1.02;;;;;;;25.51;49.08;101053.16;5021719;28;20054;-62
2023/09/20 02:53:21;;;;;;;4.93;1.45;;;;;;;25.52;48.99;101056.72;4980358;28;20436;-61
2023/09/20 02:55:48;;;;;;;3.17;1.08;;;;;;;25.52;49.07;101048.56;4996375;28;20050;-62
2023/09/20 02:58:17;;;;;;;3.05;1.10;;;;;;;25.52;49.22;101048.56;4998328;28;20386;-62
2023/09/20 03:00:50;;;;;;;3.00;1.20;;;;;;;25.53;49.71;101051.13;4999504;28;20069;-60
2023/09/20 03:03:19;;;;;;;3.00;1.30;;;;;;;25.55;50.16;101035.53;4998073;28;20062;-60
2023/09/20 03:05:47;;;;;;;3.22;1.30;;;;;;;25.56;50.16;101039.09;4998770;28;20066;-60
2023/09/20 03:08:14;;;;;;;2.47;1.25;;;;;;;25.54;49.74;101039.28;5003653;28;20042;-60
2023/09/20 03:10:43;;;;;;;4.63;1.52;;;;;;;25.52;49.50;101046.75;5009435;28;20061;-60
2023/09/20 03:13:17;;;;;;;2.22;1.00;;;;;;;25.51;49.48;101036.03;4982156;28;20130;-60
2023/09/20 03:15:54;;;;;;;3.10;1.52;;;;;;;25.48;49.20;101031.81;4985725;28;20058;-60
2023/09/20 03:18:25;;;;;;;3.15;1.20;;;;;;;25.47;49.08;101030.09;4999001;28;20046;-66
2023/09/20 03:21:05;;;;;;;3.25;1.13;;;;;;;25.46;49.00;101030.28;4998383;28;20058;-66
2023/09/20 03:23:33;;;;;;;3.53;1.17;;;;;;;25.44;49.13;101035.00;5001201;28;20048;-67
2023/09/20 03:26:02;;;;;;;2.55;1.30;;;;;;;25.43;49.04;101025.19;5000957;28;20052;-66
2023/09/20 03:28:33;;;;;;;1.88;1.08;;;;;;;25.42;48.89;101031.63;4998210;28;20057;-60
2023/09/20 03:31:06;;;;;;;2.42;1.38;;;;;;;25.39;48.92;101025.53;4997827;28;20065;-60
2023/09/20 03:33:34;;;;;;;2.42;1.40;;;;;;;25.38;48.99;101021.13;5000783;28;20065;-60
2023/09/20 03:36:09;;;;;;;2.70;1.42;;;;;;;25.37;48.91;101024.84;5015605;28;20408;-61
2023/09/20 03:38:37;;;;;;;4.40;1.42;;;;;;;25.37;48.97;101030.28;4997588;28;20054;-66
2023/09/20 03:41:06;;;;;;;2.80;1.50;;;;;;;25.35;48.85;101031.44;4997642;28;20050;-66
2023/09/20 03:43:35;;;;;;;2.35;1.27;;;;;;;25.34;48.69;101027.06;4992816;28;20054;-66
2023/09/20 03:46:02;;;;;;;3.03;1.33;;;;;;;25.34;48.67;101024.34;5014080;28;20500;-66
2023/09/20 03:48:30;;;;;;;2.70;1.20;;;;;;;25.33;48.68;101019.94;4997471;28;20057;-60
2023/09/20 03:50:57;;;;;;;2.83;1.45;;;;;;;25.31;48.97;101017.38;4998523;28;20059;-60
2023/09/20 03:53:25;;;;;;;3.20;1.70;;;;;;;25.30;48.86;101023.81;4981149;28;20058;-60
2023/09/20 03:55:53;;;;;;;2.90;1.33;;;;;;;25.30;48.76;101022.97;4997164;28;20050;-60
2023/09/20 03:58:22;;;;;;;2.15;1.05;;;;;;;25.28;48.66;101025.00;4997845;28;20034;-60
2023/09/20 04:00:50;;;;;;;4.78;1.48;;;;;;;25.28;48.50;101027.69;4997706;28;20061;-60
2023/09/20 04:03:18;;;;;;;2.88;1.27;;;;;;;25.25;48.34;101028.06;5001071;28;20060;-60
2023/09/20 04:05:46;;;;;;;3.28;1.45;;;;;;;25.26;48.38;101043.28;4997446;28;20504;-60
2023/09/20 04:08:19;;;;;;;2.15;1.05;;;;;;;25.26;48.62;101046.00;4997729;28;20054;-66
2023/09/20 04:10:46;;;;;;;2.95;1.65;;;;;;;25.25;48.54;101036.19;5001559;28;20049;-66
2023/09/20 04:13:17;;;;;;;3.60;1.27;;;;;;;25.24;48.37;101046.19;5000054;28;20054;-66
2023/09/20 04:15:45;;;;;;;2.60;1.40;;;;;;;25.24;48.20;101046.19;4985324;28;20042;-66
2023/09/20 04:18:13;;;;;;;3.13;1.60;;;;;;;25.23;48.13;101039.03;5007263;28;20045;-66
2023/09/20 04:20:47;;;;;;;3.75;1.50;;;;;;;25.24;48.44;101034.47;5011097;28;20050;-66
2023/09/20 04:23:18;;;;;;;2.50;1.48;;;;;;;25.23;48.43;101033.63;5012896;28;20057;-66
2023/09/20 04:25:46;;;;;;;2.97;1.52;;;;;;;25.24;48.48;101031.75;5011377;28;20061;-67
2023/09/20 04:28:13;;;;;;;2.80;1.15;;;;;;;25.23;48.49;101039.03;5011712;28;20057;-66
2023/09/20 04:30:41;;;;;;;3.13;1.00;;;;;;;25.21;48.54;101032.97;5014264;28;20069;-66
2023/09/20 04:33:13;;;;;;;2.95;1.50;;;;;;;25.23;48.33;101038.19;5014593;28;20513;-66
2023/09/20 04:35:43;;;;;;;2.58;1.30;;;;;;;25.22;48.54;101050.91;5015324;28;20058;-66
2023/09/20 04:38:16;;;;;;;2.63;1.45;;;;;;;25.22;48.55;101039.22;5015544;28;20420;-60
2023/09/20 04:40:43;;;;;;;2.78;1.30;;;;;;;25.22;48.26;101039.22;5015532;28;20053;-60
2023/09/20 04:43:12;;;;;;;2.25;1.30;;;;;;;25.23;48.24;101032.78;5015045;28;20054;-60
2023/09/20 04:45:40;;;;;;;2.55;1.20;;;;;;;25.22;48.32;101039.22;5015037;28;20054;-60
2023/09/20 04:48:08;;;;;;;3.00;1.58;;;;;;;25.20;48.25;101044.81;5014782;28;20382;-65
2023/09/20 04:50:35;;;;;;;2.45;1.20;;;;;;;25.21;48.09;101038.38;5016345;28;20484;-66
2023/09/20 04:53:04;;;;;;;3.05;1.48;;;;;;;25.22;48.20;101031.09;4986999;28;20054;-66
2023/09/20 04:55:34;;;;;;;2.80;1.40;;;;;;;25.22;48.32;101040.06;4979547;28;20047;-66
2023/09/20 04:58:02;;;;;;;3.30;1.40;;;;;;;25.21;48.22;101037.53;5001604;28;20054;-66
2023/09/20 05:00:37;;;;;;;3.03;1.85;;;;;;;25.20;48.38;101046.66;5003053;28;20046;-66
2023/09/20 05:03:07;;;;;;;2.80;1.10;;;;;;;25.18;48.51;101038.69;5000547;28;20046;-66
2023/09/20 05:05:34;;;;;;;3.22;1.33;;;;;;;25.19;48.67;101047.66;5002041;28;20406;-66
2023/09/20 05:08:05;;;;;;;3.25;1.70;;;;;;;25.17;48.63;101042.44;5005092;28;20049;-66
2023/09/20 05:10:32;;;;;;;2.25;1.38;;;;;;;25.17;48.52;101041.59;5002869;28;20042;-66
2023/09/20 05:13:01;;;;;;;2.42;1.13;;;;;;;25.16;48.52;101054.28;5000454;28;20062;-66
2023/09/20 05:15:29;;;;;;;3.00;1.40;;;;;;;25.17;48.59;101061.41;5002581;28;20069;-66
2023/09/20 05:17:58;;;;;;;2.65;1.30;;;;;;;25.16;48.79;101065.13;4995529;28;20065;-66
2023/09/20 05:20:28;;;;;;;3.08;1.33;;;;;;;25.15;48.60;101052.56;5000538;28;20408;-60
2023/09/20 05:22:57;;;;;;;2.72;1.13;;;;;;;25.17;48.74;101055.13;5002098;28;20053;-60
2023/09/20 05:25:26;;;;;;;2.80;1.50;;;;;;;25.17;48.49;101044.28;5001098;28;20061;-60
2023/09/20 05:27:54;;;;;;;2.65;1.20;;;;;;;25.17;48.55;101052.41;5004915;28;20392;-60
2023/09/20 05:30:22;;;;;;;2.70;1.10;;;;;;;25.17;48.41;101057.84;5001783;28;20058;-66
2023/09/20 05:32:51;;;;;;;2.15;1.02;;;;;;;25.17;48.37;101060.56;4999977;28;20065;-66
2023/09/20 05:35:19;;;;;;;2.30;1.20;;;;;;;25.15;48.48;101061.53;5002740;28;20046;-66
2023/09/20 05:37:48;;;;;;;2.53;1.30;;;;;;;25.15;48.26;101061.53;5002412;28;20058;-66
2023/09/20 05:40:18;;;;;;;2.65;1.00;;;;;;;25.17;48.20;101063.25;5001285;28;20061;-66
2023/09/20 05:42:48;;;;;;;2.50;1.17;;;;;;;25.16;48.30;101057.00;5000066;28;20046;-66
2023/09/20 05:45:15;;;;;;;2.63;1.40;;;;;;;25.16;48.37;101057.00;5003564;28;20046;-66
2023/09/20 05:47:43;;;;;;;3.25;1.40;;;;;;;25.15;48.48;101053.41;5003568;28;20046;-66
2023/09/20 05:50:13;;;;;;;2.55;1.17;;;;;;;25.15;48.69;101053.41;5001309;28;20053;-66
2023/09/20 05:52:44;;;;;;;2.78;1.17;;;;;;;25.17;48.64;101052.41;5001433;28;20058;-66
2023/09/20 05:55:13;;;;;;;2.15;1.15;;;;;;;25.17;48.37;101055.13;4988801;28;20400;-66
2023/09/20 05:57:41;;;;;;;2.85;1.20;;;;;;;25.17;48.40;101057.84;4990320;28;20509;-66
2023/09/20 06:00:16;;;;;;;2.80;1.10;;;;;;;25.17;48.30;101042.44;5001273;28;20140;-59
2023/09/20 06:02:44;;;;;;;2.80;1.58;;;;;;;25.18;48.52;101040.56;5001237;28;20404;-59
2023/09/20 06:05:12;;;;;;;2.78;1.27;;;;;;;25.17;48.36;101047.84;5004428;28;20046;-60
2023/09/20 06:07:40;;;;;;;2.78;1.27;;;;;;;25.19;48.34;101050.38;5001187;28;20260;-60
2023/09/20 06:10:08;;;;;;;3.08;1.17;;;;;;;25.17;48.41;101052.41;5000733;28;20045;-66
2023/09/20 06:12:35;;;;;;;4.45;1.65;;;;;;;25.17;48.36;101049.72;5001325;28;20047;-66
2023/09/20 06:15:04;;;;;;;5.07;2.28;;;;;;;25.17;48.37;101057.84;5004790;28;20045;-66
2023/09/20 06:17:32;;;;;;;2.67;1.30;;;;;;;25.16;48.55;101067.84;5003143;28;20105;-66
2023/09/20 06:20:00;;;;;;;3.70;1.50;;;;;;;25.16;48.18;101078.66;5014048;28;20054;-65
2023/09/20 06:22:28;;;;;;;3.58;1.52;;;;;;;25.13;48.10;101087.97;5014320;28;20416;-68
2023/09/20 06:24:58;;;;;;;2.90;1.38;;;;;;;25.12;47.84;101083.56;5013894;28;20049;-68
2023/09/20 06:27:25;;;;;;;3.08;1.90;;;;;;;25.09;47.57;101083.88;5003475;28;20046;-68
2023/09/20 06:29:53;;;;;;;4.20;1.67;;;;;;;25.07;47.76;101075.03;5014243;28;20049;-68
2023/09/20 06:32:21;;;;;;;2.55;1.33;;;;;;;25.05;47.72;101074.34;5013631;28;20500;-68
2023/09/20 06:34:48;;;;;;;2.80;1.42;;;;;;;25.02;48.02;101088.22;5013497;28;20408;-65
2023/09/20 06:37:25;;;;;;;3.25;1.50;;;;;;;25.00;48.32;101086.72;4995229;28;20061;-68
2023/09/20 06:39:55;;;;;;;3.63;1.67;;;;;;;24.97;48.10;101085.16;5014097;28;20493;-70
2023/09/20 06:42:25;;;;;;;3.10;1.25;;;;;;;24.98;48.37;101083.28;5013432;28;20050;-60
2023/09/20 06:44:55;;;;;;;6.10;1.90;;;;;;;24.99;48.42;101085.81;5012435;28;20054;-60
2023/09/20 06:47:23;;;;;;;3.40;1.75;;;;;;;25.02;48.48;101088.22;5013896;28;20046;-61
2023/09/20 06:49:51;;;;;;;3.15;1.60;;;;;;;25.04;48.81;101085.38;5013784;28;20072;-60
2023/09/20 06:52:18;;;;;;;2.78;1.67;;;;;;;25.06;48.78;101097.72;5004176;28;20056;-62
2023/09/20 06:54:46;;;;;;;3.35;1.83;;;;;;;25.06;49.03;101095.00;4995142;28;20413;-62
2023/09/20 06:57:18;;;;;;;3.55;1.77;;;;;;;25.06;48.85;101097.72;5001148;28;20057;-62
2023/09/20 06:59:46;;;;;;;4.38;2.40;;;;;;;25.04;48.62;101113.31;4995226;28;20425;-63
2023/09/20 07:02:16;;;;;;;3.03;1.85;;;;;;;25.02;48.21;101115.31;5001819;28;20048;-62
2023/09/20 07:04:44;;;;;;;3.50;2.03;;;;;;;25.01;48.25;101107.34;4983644;28;20041;-62
2023/09/20 07:07:12;;;;;;;5.35;2.08;;;;;;;25.01;48.30;101105.50;4993223;28;20054;-64
2023/09/20 07:09:40;;;;;;;4.63;1.98;;;;;;;24.99;48.39;101106.66;5002936;28;20460;-66
2023/09/20 07:12:07;;;;;;;4.78;2.17;;;;;;;24.99;48.74;101109.34;5003136;28;20686;-64
2023/09/20 07:14:35;;;;;;;4.15;2.00;;;;;;;24.98;48.46;101113.94;4997569;28;20046;-64
2023/09/20 07:17:03;;;;;;;3.60;2.08;;;;;;;24.97;48.54;101117.66;4999545;28;20042;-65
2023/09/20 07:19:31;;;;;;;4.18;2.20;;;;;;;24.99;48.39;101114.78;5000345;28;20412;-62
2023/09/20 07:21:59;;;;;;;4.00;1.70;;;;;;;24.98;48.66;101113.09;5003319;28;20041;-62
2023/09/20 07:24:26;;;;;;;4.28;2.42;;;;;;;25.00;48.61;101116.50;4999218;28;20050;-63
2023/09/20 07:26:58;;;;;;;4.93;2.20;;;;;;;25.00;48.49;101105.66;4999841;28;20050;-63
2023/09/20 07:29:25;;;;;;;4.72;2.13;;;;;;;25.00;49.03;101116.50;5003162;28;20046;-62
2023/09/20 07:31:54;;;;;;;5.22;2.33;;;;;;;25.00;49.09;101124.63;5004975;28;20045;-64
2023/09/20 07:34:23;;;;;;;6.63;2.70;;;;;;;25.01;49.10;101124.44;5003127;28;20408;-64
2023/09/20 07:36:54;;;;;;;3.47;2.10;;;;;;;25.01;49.07;101118.19;5001220;28;20059;-64
2023/09/20 07:39:22;;;;;;;4.85;2.50;;;;;;;25.01;49.51;101129.88;5003745;28;20515;-63
2023/09/20 07:41:50;;;;;;;5.00;2.72;;;;;;;25.02;49.51;101125.28;5003308;28;20396;-63
2023/09/20 07:44:23;;;;;;;7.00;2.92;;;;;;;25.02;49.93;101128.00;5000748;28;20054;-64
2023/09/20 07:46:52;;;;;;;4.78;2.55;;;;;;;25.03;49.97;101127.84;5007734;28;20045;-64
2023/09/20 07:49:20;;;;;;;5.90;2.85;;;;;;;25.03;50.21;101133.25;5011423;28;20046;-63
2023/09/20 07:51:50;;;;;;;5.03;2.88;;;;;;;25.03;50.44;101129.69;5008857;28;20042;-61
2023/09/20 07:54:17;;;;;;;7.30;3.60;;;;;;;25.03;50.78;101138.66;5011020;28;20042;-64
2023/09/20 07:56:49;;;;;;;6.07;3.10;;;;;;;25.03;51.24;101135.97;5010875;28;20046;-62
2023/09/20 07:59:17;;;;;;;6.38;3.45;;;;;;;25.03;51.19;101138.66;5010944;28;20042;-62
2023/09/20 08:01:45;;;;;;;6.60;3.70;;;;;;;25.04;51.70;101151.22;5006696;28;20062;-62
2023/09/20 08:04:17;;;;;;;7.57;4.40;;;;;;;25.05;51.83;101143.94;4988069;28;20051;-62
2023/09/20 08:06:44;;;;;;;6.47;3.58;;;;;;;25.03;51.85;101135.97;4998488;28;20052;-62
2023/09/20 08:09:12;;;;;;;9.20;4.70;;;;;;;25.04;52.32;101134.97;5009077;28;20061;-63
2023/09/20 08:11:39;;;;;;;11.43;4.35;;;;;;;25.06;52.47;101132.94;5004815;28;20050;-61
2023/09/20 08:14:07;;;;;;;7.68;4.43;;;;;;;25.07;52.76;101126.50;5007228;28;20065;-62
2023/09/20 08:16:35;;;;;;;10.85;5.93;;;;;;;25.07;53.03;101129.19;5007419;28;20404;-62
2023/09/20 08:21:34;;;;;;;12.05;5.65;;;;;;;25.08;54.12;101139.06;4995207;28;20038;-62
2023/09/20 09:00:31;;;;;;;12.65;7.68;;;;;;;25.15;57.64;101153.66;5000502;28;20408;-62
2023/09/20 09:03:02;;;;;;;13.35;8.20;;;;;;;25.16;57.73;101146.41;5000410;28;20043;-62
2023/09/20 09:05:30;;;;;;;12.05;7.35;;;;;;;25.18;58.07;101151.66;4991855;28;20049;-63
2023/09/20 09:08:02;;;;;;;11.52;6.72;;;;;;;25.19;57.77;101150.63;4989604;28;20046;-62
2023/09/20 09:10:30;;;;;;;11.80;7.50;;;;;;;25.19;57.61;101153.34;5003906;28;20050;-62
2023/09/20 09:12:58;;;;;;;12.48;7.32;;;;;;;25.21;57.75;101148.63;5000950;28;20053;-62
2023/09/20 09:15:27;;;;;;;14.98;7.70;;;;;;;25.20;57.82;101142.34;5001132;28;20058;-62
2023/09/20 09:17:55;;;;;;;15.32;7.28;;;;;;;25.22;57.68;101125.94;5011729;28;20054;-63
2023/09/20 09:20:23;;;;;;;10.15;6.82;;;;;;;25.22;57.32;101121.34;5013584;28;20054;-61
2023/09/20 09:22:51;;;;;;;10.75;7.03;;;;;;;25.27;57.38;101118.16;5015859;28;20049;-58
2023/09/20 09:25:25;;;;;;;14.27;6.47;;;;;;;25.31;57.48;101124.94;5015654;28;20053;-58
2023/09/20 09:27:53;;;;;;;12.15;7.28;;;;;;;25.32;57.75;101135.63;5015706;28;20125;-58
2023/09/20 09:30:21;;;;;;;14.65;8.13;;;;;;;25.31;58.37;101139.31;5015908;28;20503;-58
2023/09/20 09:32:50;;;;;;;12.13;8.15;;;;;;;25.30;59.06;101134.09;5015704;28;20046;-58
2023/09/20 09:35:21;;;;;;;13.15;7.53;;;;;;;25.29;59.02;101133.25;5015330;28;20045;-58
2023/09/20 09:38:08;;;;;;;13.05;7.72;;;;;;;25.28;59.13;101130.66;5014412;28;20054;-59
2023/09/20 09:40:56;;;;;;;13.65;8.00;;;;;;;25.28;59.18;101130.66;5014563;28;20053;-61
2023/09/20 09:43:32;;;;;;;11.57;7.57;;;;;;;25.28;58.84;101134.25;5005279;28;20054;-61
2023/09/20 09:46:10;;;;;;;10.52;7.82;;;;;;;25.28;58.99;101136.09;5012007;28;20077;-61
2023/09/20 09:48:37;;;;;;;12.23;8.40;;;;;;;25.28;59.67;101133.38;5013994;28;20057;-58
2023/09/20 09:51:06;;;;;;;12.95;7.43;;;;;;;25.26;59.93;101132.72;5013105;28;20045;-58
2023/09/20 09:53:36;;;;;;;12.45;8.20;;;;;;;25.26;60.09;101121.88;5011359;28;20045;-58
2023/09/20 09:56:05;;;;;;;13.68;7.68;;;;;;;25.26;59.83;101130.00;5011197;28;20057;-58
2023/09/20 09:58:33;;;;;;;11.55;7.78;;;;;;;25.25;59.88;101128.31;5013086;28;20049;-58
2023/09/20 10:01:04;;;;;;;12.60;7.68;;;;;;;25.26;60.05;101121.88;5012186;28;20061;-58
2023/09/20 10:03:34;;;;;;;10.38;6.95;;;;;;;25.26;60.12;101124.59;5008775;28;20057;-58
2023/09/20 10:06:21;;;;;;;11.93;7.00;;;;;;;25.26;59.51;101122.72;5004005;28;20039;-58
2023/09/20 10:08:56;;;;;;;12.52;7.07;;;;;;;25.26;59.60;101117.31;4997960;28;20042;-61
2023/09/20 10:11:25;;;;;;;11.57;7.68;;;;;;;25.28;59.89;101119.84;5007654;28;20400;-61
2023/09/20 10:13:53;;;;;;;11.25;7.57;;;;;;;25.25;60.20;101118.31;5007087;28;20437;-61
2023/09/20 10:16:22;;;;;;;11.95;7.22;;;;;;;25.27;60.09;101119.00;5009104;28;20053;-61
2023/09/20 10:18:52;;;;;;;10.38;7.35;;;;;;;25.26;59.83;101111.03;5011688;28;20041;-61
2023/09/20 10:21:26;;;;;;;12.98;7.40;;;;;;;25.27;59.94;101115.44;5002629;28;20046;-61
2023/09/20 10:23:59;;;;;;;13.43;8.45;;;;;;;25.28;59.99;101114.41;5005662;28;20046;-61
2023/09/20 10:26:29;;;;;;;12.13;7.55;;;;;;;25.27;59.91;101110.84;5007720;28;20053;-61
2023/09/20 10:29:17;;;;;;;13.48;7.00;;;;;;;25.29;60.11;101106.13;5006120;28;20515;-61
2023/09/20 10:31:47;;;;;;;11.73;7.80;;;;;;;25.29;59.62;101105.28;4999946;28;20382;-61
2023/09/20 10:34:19;;;;;;;13.90;7.85;;;;;;;25.31;60.09;101097.84;5001883;28;20377;-61
2023/09/20 10:36:53;;;;;;;13.73;7.72;;;;;;;25.31;59.97;101093.25;5005640;28;20058;-61
2023/09/20 10:39:22;;;;;;;13.02;9.20;;;;;;;25.29;60.75;101081.75;5002139;28;20054;-61
2023/09/20 10:41:52;;;;;;;13.77;8.82;;;;;;;25.28;61.29;101081.91;5002354;28;20046;-61
2023/09/20 10:44:43;;;;;;;17.15;9.73;;;;;;;25.26;61.73;101083.94;5005184;28;20050;-61
2023/09/20 10:47:16;;;;;;;17.02;10.40;;;;;;;25.25;62.31;101082.25;5002097;28;20545;-61
2023/09/20 10:49:48;;;;;;;16.33;10.20;;;;;;;25.23;62.58;101089.69;5011573;28;20046;-58
2023/09/20 10:52:31;;;;;;;16.58;10.13;;;;;;;25.20;63.22;101088.16;5009717;28;20488;-59
2023/09/20 10:55:22;;;;;;;14.80;9.63;;;;;;;25.19;63.03;101081.03;5010664;28;20045;-58
2023/09/20 10:57:50;;;;;;;16.83;10.45;;;;;;;25.17;63.09;101083.06;5013986;28;20060;-58
2023/09/20 11:00:30;;;;;;;18.90;11.07;;;;;;;25.15;63.66;101076.94;5014217;28;20038;-61
2023/09/20 11:02:58;;;;;;;26.17;12.77;;;;;;;25.08;64.09;101079.47;5013503;28;20049;-61
2023/09/20 11:05:28;;;;;;;16.50;10.05;;;;;;;25.05;64.50;101081.63;5013837;28;20053;-61
2023/09/20 11:07:59;;;;;;;18.33;10.45;;;;;;;25.04;64.33;101090.78;4989842;28;20111;-61
2023/09/20 11:10:26;;;;;;;18.60;9.23;;;;;;;25.05;64.05;101079.78;4991116;28;20151;-58
2023/09/20 11:12:55;;;;;;;15.80;10.27;;;;;;;25.07;64.21;101083.16;5002758;28;20042;-58
2023/09/20 11:15:24;;;;;;;18.17;11.45;;;;;;;25.07;64.57;101085.88;5002812;28;20054;-58
2023/09/20 11:17:52;;;;;;;20.42;10.70;;;;;;;25.04;64.62;101075.38;5006441;28;20060;-58
2023/09/20 11:20:19;;;;;;;18.25;11.77;;;;;;;25.03;65.12;101065.53;5003273;28;20392;-58
2023/09/20 11:22:49;;;;;;;20.25;10.30;;;;;;;25.01;65.29;101064.84;4995269;28;20098;-58
2023/09/20 11:25:16;;;;;;;17.10;11.10;;;;;;;25.00;65.58;101067.75;5003005;28;20062;-58
2023/09/20 11:27:44;;;;;;;16.42;10.57;;;;;;;24.99;65.76;101072.28;5006029;28;20049;-58
2023/09/20 11:30:12;;;;;;;17.85;10.60;;;;;;;24.99;65.89;101064.16;5005043;28;20045;-61
2023/09/20 11:32:40;;;;;;;17.25;11.43;;;;;;;25.00;66.04;101059.63;5002426;28;20042;-61
2023/09/20 11:35:08;;;;;;;20.17;11.38;;;;;;;25.00;66.20;101056.91;5002378;28;20046;-61
2023/09/20 11:37:35;;;;;;;18.83;11.75;;;;;;;24.98;66.33;101054.34;5005331;28;20053;-61
2023/09/20 11:40:04;;;;;;;19.13;11.20;;;;;;;25.00;66.14;101051.50;5003088;28;20409;-62
2023/09/20 11:42:35;;;;;;;17.30;10.73;;;;;;;25.01;65.98;101047.75;5000507;28;20057;-61
2023/09/20 11:45:03;;;;;;;12.60;9.18;;;;;;;25.03;66.21;101043.00;5000618;28;20398;-61
2023/09/20 11:47:51;;;;;;;16.85;11.13;;;;;;;25.04;66.11;101040.16;5001746;28;20057;-60
2023/09/20 11:50:22;;;;;;;17.42;10.82;;;;;;;25.07;65.96;101047.94;4992325;28;20515;-61
2023/09/20 11:52:50;;;;;;;13.40;9.63;;;;;;;25.09;65.95;101039.69;4999855;28;20046;-60
2023/09/20 11:55:20;;;;;;;16.35;9.90;;;;;;;25.10;66.20;101044.94;5002765;28;20045;-61
2023/09/20 11:57:48;;;;;;;13.88;9.25;;;;;;;25.11;65.98;101054.75;5003635;28;20050;-60
2023/09/20 12:00:20;;;;;;;12.48;9.02;;;;;;;25.13;66.27;101050.03;5009552;28;20068;-59
2023/09/20 12:02:47;;;;;;;13.57;9.23;;;;;;;25.15;65.89;101044.44;5009293;28;20046;-59
2023/09/20 12:05:18;;;;;;;16.25;9.98;;;;;;;25.17;65.91;101044.28;5008098;28;20053;-59
2023/09/20 12:07:57;;;;;;;15.52;9.80;;;;;;;25.18;66.14;101037.84;5003058;28;20497;-59
2023/09/20 12:10:27;;;;;;;15.38;9.55;;;;;;;25.18;66.05;101033.28;4986950;28;20034;-60